KPZQ METAR Reports


Rogers City, Presque Isle County Airport, MI, United States (KPZQ) 45-24-25N 083-48-46W
Dec 10, 2018 - 11:24 AM EST / 2018.12.10 1624 UTC
Wind: from the S (190 degrees) at 8 MPH (7 KT):0
Visibility: 10 mile(s):0
Sky conditions: overcast
Temperature: 30 F (-1 C)
Windchill: 23 F (-5 C):1
Dew Point: 23 F (-5 C)
Relative Humidity: 74%
Pressure (altimeter): 30.16 in. Hg (1021 hPa)
ob: KPZQ 101624Z AUTO 19007KT 10SM OVC021 M01/M05 A3016 RMK AO2
cycle: 16

 

Rogers City METAR Meteogram

Weather Chart

Nearby METAR Reports

KPZQ - Rogers City, Michigan, USA
Distance from station: SSW 1mi, 2km
Updated: Mon, 10-Dec-2018 11:04am EST
Overcast
Overcast
 Wind from S
Wind: S 6 mph , 9 km/h
Temperature: 30°F , -1°C
Wind Chill: 24°F , -4°C
Dew Point: 23°F , -5°C
Humidity: 75%
Barometer: 30.17 inHg , 1021.7 hPa
Clouds: Overcast
Visibility: 10 miles , 16 km
Cloud details: Overcast 2100 ft
2018/12/10 16:04 KPZQ 101604Z AUTO 17005KT 10SM OVC021 M01/M05 A3017 RMK AO2
KAPN - Alpena, Michigan, USA
Distance from station: SSE 27mi, 43km
Updated: Mon, 10-Dec-2018 10:54am EST
NOT Current
Overcast
Overcast
 Wind from S
Wind: S 7 mph , 11 km/h
Temperature: 28°F , -2°C
Wind Chill: 21°F , -6°C
Dew Point: 21°F , -6°C
Humidity: 74%
Barometer: 30.18 inHg , 1022 hPa
Clouds: Overcast
Visibility: 10 miles , 16 km
Cloud details: Overcast 2300 ft
2018/12/10 15:54 KAPN 101554Z AUTO 18006KT 10SM OVC023 M02/M06 A3018 RMK AO2 SLP230 T10171056
 
KSLH - Cheboygan, Michigan, USA
Distance from station: WNW 38mi, 61km
Updated: Mon, 10-Dec-2018 11:15am EST
Overcast
Overcast
 Wind from S
Wind: S 7 mph , 11 km/h
Temperature: 32°F , 0°C
Wind Chill: 25°F , -4°C
Dew Point: 27°F , -3°C
Humidity: 80%
Barometer: 30.11 inHg , 1019.6 hPa
Clouds: Overcast
Visibility: 10 miles , 16 km
Cloud details: Overcast 2000 ft
2018/12/10 16:15 KSLH 101615Z AUTO 19006KT 10SM OVC020 00/M03 A3011 RMK AO2 T10011035
KDRM - Drummond Is, Michigan, USA
Distance from station: N 40mi, 65km
Updated: Mon, 10-Dec-2018 11:15am EST
Overcast
Overcast
 Wind from S
Wind: S 8 mph , 13 km/h
Temperature: 32°F , 0°C
Wind Chill: 25°F , -4°C
Dew Point: 25°F , -4°C
Humidity: 75%
Barometer: 30.13 inHg , 1020.3 hPa
Clouds: Overcast
Visibility: 10 miles , 16 km
Cloud details: Overcast 2700 ft
2018/12/10 16:15 KDRM 101615Z AUTO 17007KT 10SM OVC027 00/M04 A3013 RMK AO2 T10051042
 
KPLN - Pellston, Michigan, USA
Distance from station: WNW 49mi, 79km
Updated: Mon, 10-Dec-2018 10:54am EST
NOT Current
Overcast
Overcast
 Wind from SSW
Wind: SSW 10 mph , 17 km/h
Temperature: 32°F , 0°C
Wind Chill: 24°F , -4°C
Dew Point: 27°F , -3°C
Humidity: 80%
Barometer: 30.14 inHg , 1020.7 hPa
Clouds: Overcast
Visibility: 10 miles , 16 km
Cloud details: Overcast 1800 ft
2018/12/10 15:54 KPLN 101554Z AUTO 21009KT 10SM OVC018 00/M03 A3014 RMK AO2 SLP215 T00001033
KMCD - Mackinac Island, Michigan, USA
Distance from station: NW 50mi, 80km
Updated: Mon, 10-Dec-2018 11:15am EST
Overcast
Overcast
 Wind from S
Wind: S 9 mph , 15 km/h
Temperature: 32°F , 0°C
Wind Chill: 24°F , -4°C
Dew Point: 23°F , -5°C
Humidity: 69%
Barometer: 30.10 inHg , 1019.3 hPa
Clouds: Overcast
Visibility: 10 miles , 16 km
Cloud details: Overcast 1700 ft
2018/12/10 16:15 KMCD 101615Z AUTO 19008KT 160V230 10SM OVC017 00/M05 A3010 RMK AO2 T10051053